createdAt,value
2024-03-06T00:01:05.675Z,13.63
2024-03-06T00:03:32.226Z,14.38
2024-03-06T00:05:58.723Z,13.52
2024-03-06T00:08:25.254Z,14.57
2024-03-06T00:10:51.805Z,12.77
2024-03-06T00:13:18.363Z,13.00
2024-03-06T00:15:44.850Z,13.82
2024-03-06T00:18:11.574Z,13.82
2024-03-06T00:20:38.756Z,13.07
2024-03-06T00:23:05.542Z,13.63
2024-03-06T00:25:32.127Z,14.45
2024-03-06T00:27:58.719Z,13.68
2024-03-06T00:30:25.290Z,13.65
2024-03-06T00:32:52.017Z,13.68
2024-03-06T00:35:18.781Z,14.07
2024-03-06T00:37:45.555Z,14.43
2024-03-06T00:40:13.055Z,14.55
2024-03-06T00:42:41.634Z,14.70
2024-03-06T00:45:08.666Z,13.68
2024-03-06T00:47:35.831Z,14.07
2024-03-06T00:50:02.754Z,14.10
2024-03-06T00:52:29.294Z,13.50
2024-03-06T00:54:55.866Z,13.27
2024-03-06T00:57:22.337Z,12.90
2024-03-06T00:59:48.855Z,12.80
2024-03-06T01:02:15.536Z,13.98
2024-03-06T01:04:42.237Z,13.43
2024-03-06T01:07:08.819Z,12.82
2024-03-06T01:09:35.567Z,13.15
2024-03-06T01:12:02.081Z,12.93
2024-03-06T01:14:28.549Z,13.07
2024-03-06T01:16:55.176Z,13.38
2024-03-06T01:19:21.769Z,13.10
2024-03-06T01:21:49.638Z,12.95
2024-03-06T01:24:16.168Z,11.57
2024-03-06T01:26:42.690Z,12.20
2024-03-06T01:29:09.296Z,10.75
2024-03-06T01:31:35.847Z,11.52
2024-03-06T01:34:02.335Z,11.20
2024-03-06T01:36:28.906Z,11.32
2024-03-06T01:38:55.390Z,11.63
2024-03-06T01:41:21.992Z,10.55
2024-03-06T01:43:48.613Z,10.73
2024-03-06T01:46:15.226Z,12.93
2024-03-06T01:48:44.023Z,10.57
2024-03-06T01:51:10.902Z,11.75
2024-03-06T01:53:37.955Z,12.27
2024-03-06T01:56:05.468Z,12.13
2024-03-06T01:58:35.088Z,11.85
2024-03-06T02:01:02.603Z,11.65
2024-03-06T02:03:30.781Z,12.38
2024-03-06T02:05:59.879Z,11.43
2024-03-06T02:08:26.585Z,12.30
2024-03-06T02:10:53.469Z,12.63
2024-03-06T02:13:20.401Z,11.75
2024-03-06T02:15:47.101Z,10.60
2024-03-06T02:18:13.945Z,10.38
2024-03-06T02:20:43.806Z,11.20
2024-03-06T02:23:10.545Z,11.05
2024-03-06T02:25:37.459Z,10.45
2024-03-06T02:28:04.347Z,11.30
2024-03-06T02:30:36.620Z,12.32
2024-03-06T02:33:13.167Z,11.32
2024-03-06T02:35:41.206Z,11.70
2024-03-06T02:38:07.947Z,11.02
2024-03-06T02:40:34.827Z,12.48
2024-03-06T02:43:01.531Z,12.10
2024-03-06T02:45:28.075Z,13.98
2024-03-06T02:47:55.218Z,11.75
2024-03-06T02:50:22.450Z,13.77
2024-03-06T02:52:49.097Z,11.23
2024-03-06T02:55:16.288Z,12.95
2024-03-06T02:57:42.880Z,11.50
2024-03-06T03:00:14.713Z,13.27
2024-03-06T03:02:41.480Z,13.50
2024-03-06T03:05:08.595Z,13.82
2024-03-06T03:07:35.254Z,12.65
2024-03-06T03:10:01.907Z,11.90
2024-03-06T03:12:28.377Z,13.27
2024-03-06T03:14:54.882Z,13.05
2024-03-06T03:17:21.484Z,14.32
2024-03-06T03:19:48.146Z,13.48
2024-03-06T03:22:14.652Z,13.57
2024-03-06T03:24:43.044Z,13.25
2024-03-06T03:27:09.492Z,12.18
2024-03-06T03:29:36.050Z,11.60
2024-03-06T03:32:02.636Z,11.10
2024-03-06T03:34:29.236Z,13.45
2024-03-06T03:36:55.821Z,13.82
2024-03-06T03:39:25.493Z,11.40
2024-03-06T03:41:52.115Z,13.68
2024-03-06T03:44:22.904Z,12.75
2024-03-06T03:46:49.567Z,13.02
2024-03-06T03:49:16.304Z,11.77
2024-03-06T03:51:42.908Z,12.98
2024-03-06T03:54:09.436Z,12.63
2024-03-06T03:56:36.300Z,12.23
2024-03-06T03:59:03.073Z,12.73
2024-03-06T04:01:29.769Z,13.00
2024-03-06T04:03:56.314Z,12.05
2024-03-06T04:06:22.948Z,13.50
2024-03-06T04:08:50.067Z,13.82
2024-03-06T04:11:17.057Z,13.90
2024-03-06T04:13:43.847Z,15.02
2024-03-06T04:16:10.637Z,13.85
2024-03-06T04:18:37.404Z,13.88
2024-03-06T04:21:07.341Z,13.13
2024-03-06T04:23:34.302Z,14.00
2024-03-06T04:26:01.646Z,15.15
2024-03-06T04:28:28.286Z,14.70
2024-03-06T04:30:54.999Z,15.88
2024-03-06T04:33:21.544Z,15.60
2024-03-06T04:35:48.292Z,13.52
2024-03-06T04:38:15.096Z,13.20
2024-03-06T04:40:41.882Z,13.25
2024-03-06T04:43:08.514Z,14.13
2024-03-06T04:45:35.268Z,14.32
2024-03-06T04:48:01.941Z,14.95
2024-03-06T04:50:28.603Z,14.05
2024-03-06T04:52:55.600Z,13.43
2024-03-06T04:55:24.099Z,14.45
2024-03-06T04:57:50.911Z,13.75
2024-03-06T05:00:19.779Z,13.05
2024-03-06T06:00:17.768Z,14.02
2024-03-06T06:02:45.985Z,15.55
2024-03-06T06:07:45.586Z,20.00
2024-03-06T06:10:12.487Z,23.85
2024-03-06T06:12:39.055Z,20.48
2024-03-06T06:15:06.193Z,17.55
2024-03-06T06:17:32.777Z,16.50
2024-03-06T06:19:59.409Z,16.08
2024-03-06T06:22:28.899Z,15.82
2024-03-06T06:24:56.830Z,15.70
2024-03-06T06:27:23.455Z,16.05
2024-03-06T06:29:49.932Z,17.48
2024-03-06T06:32:16.616Z,17.55
2024-03-06T06:34:43.128Z,17.42
2024-03-06T06:37:09.627Z,17.27
2024-03-06T06:39:36.156Z,17.45
2024-03-06T06:42:05.449Z,15.27
2024-03-06T06:44:31.986Z,16.20
2024-03-06T06:46:58.858Z,16.75
2024-03-06T06:49:25.377Z,16.35
2024-03-06T06:51:52.799Z,16.55
2024-03-06T06:54:19.496Z,15.75
2024-03-06T06:56:46.061Z,15.15
2024-03-06T06:59:14.529Z,16.40
2024-03-06T07:01:42.846Z,16.00
2024-03-06T07:04:09.355Z,15.82
2024-03-06T07:06:36.532Z,16.25
2024-03-06T07:09:06.026Z,17.25
2024-03-06T07:11:32.544Z,14.57
2024-03-06T07:13:59.056Z,15.65
2024-03-06T07:16:25.678Z,15.40
2024-03-06T07:18:52.214Z,15.18
2024-03-06T07:21:19.158Z,16.60
2024-03-06T07:23:45.726Z,16.58
2024-03-06T07:26:12.840Z,15.32
2024-03-06T07:28:39.571Z,15.25
2024-03-06T07:31:06.073Z,16.08
2024-03-06T07:33:35.346Z,16.25
2024-03-06T07:36:02.228Z,16.00
2024-03-06T07:38:29.537Z,16.80
2024-03-06T07:40:56.713Z,15.10
2024-03-06T07:43:24.473Z,16.27
2024-03-06T07:45:51.020Z,14.45
2024-03-06T07:48:17.669Z,14.48
2024-03-06T07:50:44.242Z,15.50
2024-03-06T07:53:10.783Z,14.98
2024-03-06T07:55:37.378Z,14.15
2024-03-06T07:58:03.945Z,15.20
2024-03-06T08:00:32.421Z,14.18
2024-03-06T08:02:59.179Z,14.00
2024-03-06T08:05:25.748Z,14.80
2024-03-06T08:07:52.376Z,15.23
2024-03-06T08:10:19.932Z,14.57
2024-03-06T08:15:15.191Z,14.35
2024-03-06T08:17:44.961Z,14.57
2024-03-06T08:20:12.885Z,14.98
2024-03-06T08:22:41.006Z,15.32
2024-03-06T08:25:08.927Z,14.50
2024-03-06T08:27:37.263Z,14.43
2024-03-06T08:30:08.431Z,13.70
2024-03-06T08:32:36.484Z,13.77
2024-03-06T08:35:07.532Z,14.20
2024-03-06T08:37:34.713Z,13.68
2024-03-06T08:40:02.084Z,14.35
2024-03-06T08:42:29.314Z,13.52
2024-03-06T08:44:56.156Z,14.20
2024-03-06T08:47:22.706Z,13.65
2024-03-06T08:49:49.356Z,12.70
2024-03-06T08:52:16.051Z,13.95
2024-03-06T08:54:42.903Z,12.95
2024-03-06T08:57:10.064Z,13.52
2024-03-06T08:59:36.734Z,12.45
2024-03-06T09:02:17.713Z,12.20
2024-03-06T09:04:44.480Z,11.50
2024-03-06T09:07:11.596Z,12.20
2024-03-06T09:09:38.496Z,12.25
2024-03-06T09:12:06.566Z,10.32
2024-03-06T09:14:36.455Z,11.68
2024-03-06T09:17:03.194Z,11.70
2024-03-06T09:19:30.439Z,11.32
2024-03-06T09:21:57.586Z,11.63
2024-03-06T09:24:26.207Z,10.55
2024-03-06T09:26:53.611Z,11.43
2024-03-06T09:29:20.573Z,10.90
2024-03-06T09:31:48.991Z,9.63
2024-03-06T09:34:16.207Z,8.90
2024-03-06T09:36:48.198Z,9.55
2024-03-06T09:39:24.027Z,10.20
2024-03-06T09:41:51.425Z,10.75
2024-03-06T09:44:19.168Z,8.13
2024-03-06T09:46:47.118Z,8.80
2024-03-06T09:49:16.497Z,8.02
2024-03-06T09:51:54.676Z,7.05
2024-03-06T09:54:21.347Z,7.40
2024-03-06T09:56:49.333Z,7.03
2024-03-06T09:59:16.572Z,8.00
2024-03-06T10:01:58.195Z,8.52
2024-03-06T10:04:28.743Z,9.43
2024-03-06T10:07:00.056Z,9.35
2024-03-06T10:09:28.078Z,8.10
2024-03-06T10:11:55.395Z,7.72
2024-03-06T10:16:58.964Z,7.80
2024-03-06T10:19:30.336Z,9.00
2024-03-06T10:21:58.530Z,8.68
2024-03-06T10:24:27.704Z,8.35
2024-03-06T10:26:59.758Z,8.15
2024-03-06T10:29:30.318Z,8.40
2024-03-06T10:31:59.389Z,8.00
2024-03-06T10:34:27.695Z,8.00
2024-03-06T10:36:59.003Z,7.95
2024-03-06T10:39:25.874Z,8.35
2024-03-06T10:41:59.178Z,8.40
2024-03-06T10:44:27.484Z,7.93
2024-03-06T10:47:01.591Z,8.00
2024-03-06T10:49:30.650Z,7.90
2024-03-06T10:52:08.290Z,7.70
2024-03-06T10:54:36.231Z,8.45
2024-03-06T10:57:03.681Z,8.02
2024-03-06T10:59:31.337Z,7.40
2024-03-06T11:02:01.964Z,7.55
2024-03-06T11:04:31.236Z,6.75
2024-03-06T11:07:00.692Z,7.95
2024-03-06T11:09:36.408Z,7.90
2024-03-06T11:12:04.043Z,5.97
2024-03-06T11:14:32.663Z,5.82
2024-03-06T11:17:05.425Z,5.05
2024-03-06T11:19:33.555Z,5.43
2024-03-06T11:22:00.729Z,6.35
2024-03-06T11:24:34.802Z,6.93
2024-03-06T11:27:02.435Z,6.85
2024-03-06T11:29:30.683Z,6.93
2024-03-06T11:32:02.807Z,6.60
2024-03-06T11:34:31.624Z,6.72
2024-03-06T11:36:58.636Z,7.03
2024-03-06T11:39:25.309Z,7.03
2024-03-06T11:41:52.265Z,6.75
2024-03-06T11:44:24.782Z,6.65
2024-03-06T11:46:59.670Z,6.03
2024-03-06T11:49:32.710Z,6.50
2024-03-06T11:52:03.327Z,6.60
2024-03-06T11:54:31.404Z,6.70
2024-03-06T11:57:00.377Z,6.45
2024-03-06T11:59:29.108Z,6.97
2024-03-06T12:01:57.024Z,7.15
2024-03-06T12:04:25.356Z,6.88
2024-03-06T12:06:52.125Z,6.43
2024-03-06T12:09:18.820Z,5.78
2024-03-06T12:11:45.614Z,6.70
2024-03-06T12:14:19.095Z,6.72
2024-03-06T12:19:21.885Z,7.20
2024-03-06T12:21:49.416Z,7.18
2024-03-06T12:24:21.132Z,6.57
2024-03-06T12:26:59.636Z,7.70
2024-03-06T12:29:29.706Z,8.43
2024-03-06T12:31:58.388Z,7.65
2024-03-06T12:34:24.986Z,7.93
2024-03-06T12:36:52.059Z,7.68
2024-03-06T12:39:22.445Z,6.85
2024-03-06T12:41:49.186Z,8.13
2024-03-06T12:44:16.539Z,7.63
2024-03-06T12:46:43.654Z,7.50
2024-03-06T12:49:10.299Z,7.88
2024-03-06T12:51:36.964Z,7.82
2024-03-06T12:54:04.951Z,8.35
2024-03-06T12:56:31.559Z,8.93
2024-03-06T12:58:58.164Z,7.65
2024-03-06T13:01:24.745Z,7.72
2024-03-06T13:03:51.411Z,8.32
2024-03-06T13:06:18.051Z,9.00
2024-03-06T13:08:45.019Z,8.85
2024-03-06T13:11:11.981Z,8.23
2024-03-06T13:13:38.892Z,9.48
2024-03-06T13:16:07.551Z,9.25
2024-03-06T13:18:35.403Z,9.32
2024-03-06T13:21:03.046Z,9.18
2024-03-06T13:23:29.793Z,9.15
2024-03-06T13:25:56.333Z,8.77
2024-03-06T13:28:22.794Z,8.50
2024-03-06T13:30:49.298Z,9.30
2024-03-06T13:33:15.985Z,9.43
2024-03-06T13:35:43.838Z,8.85
2024-03-06T13:38:10.541Z,9.10
2024-03-06T13:40:37.514Z,9.30
2024-03-06T13:43:04.154Z,9.98
2024-03-06T13:45:30.794Z,9.40
2024-03-06T13:47:57.563Z,9.50
2024-03-06T13:50:26.824Z,9.93
2024-03-06T13:52:53.490Z,10.48
2024-03-06T13:55:20.063Z,10.05
2024-03-06T13:57:47.486Z,11.10
2024-03-06T14:02:48.968Z,11.43
2024-03-06T14:05:16.151Z,11.65
2024-03-06T14:07:43.101Z,10.45
2024-03-06T14:10:11.918Z,11.93
2024-03-06T14:12:40.195Z,11.20
2024-03-06T14:15:13.980Z,11.48
2024-03-06T14:17:41.473Z,11.38
2024-03-06T14:22:35.210Z,11.10
2024-03-06T14:25:01.704Z,11.73
2024-03-06T14:27:28.488Z,12.60
2024-03-06T14:29:55.466Z,11.68
2024-03-06T14:32:22.478Z,10.65
2024-03-06T14:34:49.048Z,11.07
2024-03-06T14:37:15.730Z,10.90
2024-03-06T14:39:42.270Z,11.35
2024-03-06T14:42:08.906Z,11.15
2024-03-06T14:44:35.645Z,11.38
2024-03-06T14:47:02.317Z,9.82
2024-03-06T14:49:28.968Z,9.18
2024-03-06T14:51:56.696Z,9.55
2024-03-06T14:54:26.887Z,9.38
2024-03-06T14:56:54.438Z,9.15
2024-03-06T15:01:49.047Z,8.48
2024-03-06T15:04:15.647Z,9.13
2024-03-06T15:06:42.391Z,9.98
2024-03-06T15:09:13.059Z,9.48
2024-03-06T15:11:42.847Z,10.30
2024-03-06T15:14:09.733Z,10.15
2024-03-06T15:16:38.480Z,9.48
2024-03-06T15:19:05.328Z,11.65
2024-03-06T15:21:32.959Z,10.57
2024-03-06T15:24:00.516Z,11.02
2024-03-06T15:26:28.663Z,9.80
2024-03-06T15:28:55.247Z,9.52
2024-03-06T15:31:21.841Z,9.57
2024-03-06T15:33:48.546Z,9.65
2024-03-06T15:36:17.239Z,9.35
2024-03-06T15:38:44.033Z,10.20
2024-03-06T15:41:10.873Z,9.75
2024-03-06T15:43:38.107Z,9.73
2024-03-06T15:46:04.945Z,10.30
2024-03-06T15:48:33.825Z,9.90
2024-03-06T15:51:00.890Z,10.77
2024-03-06T15:53:31.412Z,10.75
2024-03-06T15:55:58.013Z,10.35
2024-03-06T15:58:25.733Z,10.07
2024-03-06T16:01:00.146Z,10.18
2024-03-06T16:03:28.309Z,9.65
2024-03-06T16:06:02.324Z,9.88
2024-03-06T16:08:38.427Z,11.05
2024-03-06T16:11:05.589Z,12.95
2024-03-06T16:13:32.323Z,10.98
2024-03-06T16:15:59.468Z,10.23
2024-03-06T16:18:26.146Z,9.95
2024-03-06T16:20:53.571Z,9.40
2024-03-06T16:25:47.036Z,8.95
2024-03-06T16:28:14.130Z,9.13
2024-03-06T16:30:40.711Z,9.30
2024-03-06T16:33:07.481Z,10.38
2024-03-06T16:35:34.296Z,9.30
2024-03-06T16:38:01.006Z,10.77
2024-03-06T16:40:27.592Z,11.93
2024-03-06T16:42:54.232Z,10.68
2024-03-06T16:45:21.611Z,12.63
2024-03-06T16:50:15.652Z,12.20
2024-03-06T16:52:42.567Z,13.48
2024-03-06T16:55:09.501Z,12.07
2024-03-06T16:57:38.326Z,13.90
2024-03-06T17:00:09.201Z,12.38
2024-03-06T17:02:36.255Z,10.75
2024-03-06T17:07:29.963Z,10.98
2024-03-06T17:09:56.653Z,11.40
2024-03-06T17:12:23.299Z,10.77
2024-03-06T17:14:49.937Z,9.60
2024-03-06T17:17:16.622Z,10.85
2024-03-06T17:19:43.179Z,10.15
2024-03-06T17:22:10.210Z,9.95
2024-03-06T17:24:36.812Z,10.40
2024-03-06T17:27:03.477Z,10.80
2024-03-06T17:29:30.037Z,10.05
2024-03-06T17:31:56.803Z,10.20
2024-03-06T17:34:23.687Z,11.32
2024-03-06T17:36:50.232Z,11.90
2024-03-06T17:39:16.852Z,14.60
2024-03-06T17:41:46.050Z,12.40
2024-03-06T17:44:12.741Z,14.55
2024-03-06T17:46:39.293Z,15.32
2024-03-06T17:49:05.920Z,17.70
2024-03-06T17:51:35.986Z,15.77
2024-03-06T17:54:03.758Z,11.70
2024-03-06T17:56:30.622Z,10.65
2024-03-06T17:58:57.211Z,11.27
2024-03-06T18:01:25.124Z,9.55
2024-03-06T18:03:52.869Z,7.93
2024-03-06T18:08:46.157Z,6.80
2024-03-06T18:11:13.153Z,6.63
2024-03-06T18:13:39.930Z,7.75
2024-03-06T18:16:10.842Z,6.18
2024-03-06T18:18:38.291Z,6.72
2024-03-06T18:21:05.595Z,5.72
2024-03-06T18:23:32.458Z,5.55
2024-03-06T18:25:59.142Z,5.22
2024-03-06T18:28:25.725Z,4.75
2024-03-06T18:30:52.522Z,6.53
2024-03-06T18:33:19.751Z,7.38
2024-03-06T18:35:46.432Z,5.78
2024-03-06T18:38:13.424Z,7.72
2024-03-06T18:40:40.076Z,6.03
2024-03-06T18:43:06.635Z,5.38
2024-03-06T18:45:34.439Z,5.70
2024-03-06T18:48:01.359Z,6.03
2024-03-06T18:50:30.923Z,7.45
2024-03-06T18:52:59.532Z,6.95
2024-03-06T18:55:26.194Z,7.95
2024-03-06T18:57:52.760Z,8.75
2024-03-06T19:00:19.624Z,8.95
2024-03-06T19:02:46.290Z,8.40
2024-03-06T19:05:13.067Z,8.93
2024-03-06T19:07:39.682Z,10.27
2024-03-06T19:10:07.121Z,9.70
2024-03-06T19:12:33.747Z,10.52
2024-03-06T19:15:00.557Z,9.35
2024-03-06T19:17:27.208Z,9.75
2024-03-06T19:19:54.178Z,10.65
2024-03-06T19:22:20.751Z,11.07
2024-03-06T19:24:48.347Z,10.98
2024-03-06T19:29:41.572Z,10.88
2024-03-06T19:32:11.592Z,11.20
2024-03-06T19:34:38.527Z,12.30
2024-03-06T19:37:05.346Z,11.63
2024-03-06T19:39:32.360Z,11.88
2024-03-06T19:41:59.465Z,10.85
2024-03-06T19:44:28.167Z,12.75
2024-03-06T19:46:55.250Z,13.30
2024-03-06T19:49:22.061Z,13.75
2024-03-06T19:51:50.798Z,12.95
2024-03-06T19:54:17.292Z,12.40
2024-03-06T19:56:44.761Z,9.60
2024-03-06T19:59:11.388Z,6.90
2024-03-06T20:01:38.052Z,6.55
2024-03-06T20:04:06.422Z,6.72
2024-03-06T20:06:32.989Z,6.32
2024-03-06T20:08:59.676Z,6.07
2024-03-06T20:11:27.311Z,5.55
2024-03-06T20:13:54.309Z,5.18
2024-03-06T20:16:21.255Z,4.63
2024-03-06T20:18:47.920Z,5.88
2024-03-06T20:21:14.575Z,5.38
2024-03-06T20:23:41.179Z,4.88
2024-03-06T20:26:09.182Z,5.10
2024-03-06T20:28:35.827Z,4.78
2024-03-06T20:31:02.522Z,5.40
2024-03-06T20:33:31.368Z,5.28
2024-03-06T20:35:58.197Z,4.93
2024-03-06T20:38:25.939Z,5.00
2024-03-06T20:40:52.744Z,4.55
2024-03-06T20:43:22.984Z,4.10
2024-03-06T20:45:51.673Z,4.18
2024-03-06T20:48:18.710Z,4.10
2024-03-06T20:50:45.306Z,4.30
2024-03-06T20:53:12.697Z,4.10
2024-03-06T20:55:39.498Z,4.03
2024-03-06T20:58:06.084Z,4.43
2024-03-06T21:00:32.909Z,4.00
2024-03-06T21:02:59.476Z,4.22
2024-03-06T21:05:26.100Z,4.15
2024-03-06T21:07:53.219Z,4.65
2024-03-06T21:10:19.849Z,4.50
2024-03-06T21:12:49.245Z,4.25
2024-03-06T21:15:16.904Z,5.30
2024-03-06T21:17:44.400Z,4.22
2024-03-06T21:22:42.310Z,4.78
2024-03-06T21:25:10.089Z,4.43
2024-03-06T21:27:37.923Z,4.70
2024-03-06T21:30:07.251Z,4.45
2024-03-06T21:32:37.536Z,4.78
2024-03-06T21:35:05.304Z,4.90
2024-03-06T21:40:02.354Z,5.50
2024-03-06T21:42:29.000Z,5.80
2024-03-06T21:44:55.616Z,5.28
2024-03-06T21:47:22.724Z,4.82
2024-03-06T21:49:50.422Z,4.63
2024-03-06T21:52:17.463Z,5.82
2024-03-06T21:54:44.250Z,5.13
2024-03-06T21:57:16.276Z,5.32
2024-03-06T21:59:43.137Z,4.85
2024-03-06T22:02:12.002Z,5.13
2024-03-06T22:04:38.882Z,5.22
2024-03-06T22:07:05.620Z,5.03
2024-03-06T22:09:32.275Z,5.38
2024-03-06T22:12:01.884Z,5.28
2024-03-06T22:14:29.007Z,4.80
2024-03-06T22:16:55.586Z,5.55
2024-03-06T22:19:23.138Z,5.10
2024-03-06T22:21:50.157Z,4.90
2024-03-06T22:24:17.696Z,5.63
2024-03-06T22:26:44.734Z,5.57
2024-03-06T22:29:11.712Z,5.60
2024-03-06T22:31:38.957Z,5.38
2024-03-06T22:34:06.427Z,6.22
2024-03-06T22:36:32.918Z,6.57
2024-03-06T22:39:00.695Z,5.75
2024-03-06T22:41:27.690Z,6.40
2024-03-06T22:43:54.262Z,6.28
2024-03-06T22:46:22.497Z,6.05
2024-03-06T22:48:50.183Z,6.20
2024-03-06T22:53:45.717Z,6.25
2024-03-06T22:56:12.444Z,5.75
2024-03-06T22:58:39.001Z,6.53
2024-03-06T23:01:07.542Z,5.97
2024-03-06T23:03:34.903Z,6.60
2024-03-06T23:06:01.885Z,6.32
2024-03-06T23:08:29.110Z,7.18
2024-03-06T23:10:59.396Z,6.18
2024-03-06T23:13:26.491Z,6.97
2024-03-06T23:15:53.835Z,6.38
2024-03-06T23:18:21.023Z,6.55
2024-03-06T23:20:47.854Z,6.75
2024-03-06T23:23:14.599Z,7.22
2024-03-06T23:25:41.401Z,7.45
2024-03-06T23:28:08.012Z,7.95
2024-03-06T23:30:34.597Z,8.13
2024-03-06T23:33:01.308Z,8.02
2024-03-06T23:35:28.544Z,7.82
2024-03-06T23:37:55.070Z,7.63
2024-03-06T23:40:21.690Z,7.20
2024-03-06T23:42:48.406Z,7.78
2024-03-06T23:45:17.052Z,8.25
2024-03-06T23:47:47.073Z,6.72
2024-03-06T23:50:15.265Z,7.28
2024-03-06T23:52:41.799Z,7.35
2024-03-06T23:55:11.232Z,7.55
2024-03-06T23:57:37.876Z,6.97
